Time;durP1;ratioP1;P1;durP2;ratioP2;P2;SDS_P1;SDS_P2;PMS_P1;PMS_P2;Temp;Humidity;BMP_temperature;BMP_pressure;BME280_temperature;BME280_humidity;BME280_pressure;Samples;Min_cycle;Max_cycle;Signal;HPM_P1;HPM_P2
2023/10/03 00:00:24;;;;;;;48.25;31.35;;;17.40;99.90;;;;;;7380214;19;20187;-62
2023/10/03 00:02:57;;;;;;;44.78;31.25;;;17.40;99.90;;;;;;7385274;19;20362;-61
2023/10/03 00:05:28;;;;;;;47.08;31.88;;;17.30;99.90;;;;;;7384833;19;20078;-61
2023/10/03 00:08:04;;;;;;;49.85;32.78;;;17.30;99.90;;;;;;7385875;19;20031;-62
2023/10/03 00:10:38;;;;;;;49.30;32.38;;;17.30;99.90;;;;;;7378448;19;20022;-59
2023/10/03 00:13:08;;;;;;;49.00;31.88;;;17.30;99.90;;;;;;7381140;19;20015;-60
2023/10/03 00:15:39;;;;;;;43.60;30.73;;;17.30;99.90;;;;;;7379247;19;20069;-60
2023/10/03 00:18:05;;;;;;;47.05;30.85;;;17.30;99.90;;;;;;7387052;19;20022;-62
2023/10/03 00:20:31;;;;;;;46.13;29.65;;;17.30;99.90;;;;;;7385000;19;20436;-62
2023/10/03 00:22:58;;;;;;;44.42;32.08;;;17.20;99.90;;;;;;7385029;19;20819;-62
2023/10/03 00:25:24;;;;;;;48.95;31.80;;;17.20;99.90;;;;;;7384261;19;20021;-62
2023/10/03 00:27:52;;;;;;;47.30;31.10;;;17.20;99.90;;;;;;7380228;19;20023;-60
2023/10/03 00:30:19;;;;;;;48.50;30.85;;;17.20;99.90;;;;;;7380198;19;20022;-60
2023/10/03 00:32:46;;;;;;;45.55;31.13;;;17.20;99.90;;;;;;7375976;19;20015;-59
2023/10/03 00:35:14;;;;;;;46.65;31.17;;;17.20;99.90;;;;;;7371409;19;20020;-59
2023/10/03 00:37:44;;;;;;;48.38;30.02;;;17.20;99.90;;;;;;7376348;19;20018;-59
2023/10/03 00:42:52;;;;;;;43.78;30.20;;;17.20;99.90;;;;;;7381341;19;20021;-59
2023/10/03 00:45:21;;;;;;;40.75;28.40;;;17.20;99.90;;;;;;7379097;19;20045;-59
2023/10/03 00:47:50;;;;;;;44.33;28.40;;;17.20;99.90;;;;;;7377942;19;20015;-59
2023/10/03 00:50:19;;;;;;;45.95;30.40;;;17.10;99.90;;;;;;7381929;19;20025;-61
2023/10/03 00:52:49;;;;;;;47.83;30.38;;;17.10;99.90;;;;;;7381335;19;20023;-62
2023/10/03 00:55:15;;;;;;;47.80;29.02;;;17.10;99.90;;;;;;7384133;19;20018;-61
2023/10/03 00:57:43;;;;;;;45.80;29.08;;;17.10;99.90;;;;;;7384286;19;20481;-61
2023/10/03 01:00:16;;;;;;;44.75;28.05;;;17.10;99.90;;;;;;7382785;19;20029;-61
2023/10/03 01:02:50;;;;;;;41.65;27.23;;;17.10;99.90;;;;;;7382054;19;20710;-61
2023/10/03 01:05:16;;;;;;;39.72;28.40;;;17.10;99.90;;;;;;7382826;19;20022;-62
2023/10/03 01:07:44;;;;;;;43.47;26.30;;;17.10;99.90;;;;;;7376257;19;20819;-60
2023/10/03 01:10:17;;;;;;;41.50;26.48;;;17.10;99.90;;;;;;7375871;19;20493;-59
2023/10/03 01:12:48;;;;;;;42.03;26.83;;;17.10;99.90;;;;;;7375265;19;20098;-62
2023/10/03 01:15:16;;;;;;;35.30;24.25;;;17.10;99.90;;;;;;7381613;19;20082;-61
2023/10/03 01:17:48;;;;;;;37.33;24.92;;;17.20;99.90;;;;;;7382784;19;20086;-61
2023/10/03 01:20:28;;;;;;;39.55;25.35;;;17.20;99.90;;;;;;7385265;19;20053;-62
2023/10/03 01:22:55;;;;;;;38.47;22.80;;;17.10;99.90;;;;;;7380470;19;20048;-60
2023/10/03 01:25:27;;;;;;;38.33;23.20;;;17.10;99.90;;;;;;7378229;19;20142;-59
2023/10/03 01:27:56;;;;;;;32.88;22.02;;;17.00;99.90;;;;;;7376001;19;20485;-59
2023/10/03 01:30:22;;;;;;;33.97;22.40;;;17.00;99.90;;;;;;7382569;19;20041;-61
2023/10/03 01:32:53;;;;;;;37.58;22.35;;;17.00;99.90;;;;;;7382757;19;20479;-61
2023/10/03 01:35:22;;;;;;;37.55;22.10;;;17.00;99.90;;;;;;7381936;19;20015;-61
2023/10/03 01:37:51;;;;;;;33.22;20.13;;;17.00;99.90;;;;;;7381037;19;20384;-59
2023/10/03 01:40:19;;;;;;;33.03;21.65;;;17.10;99.90;;;;;;7378489;19;20272;-59
2023/10/03 01:42:47;;;;;;;35.85;21.90;;;17.10;99.90;;;;;;7378209;19;20030;-58
2023/10/03 01:45:19;;;;;;;38.45;20.45;;;17.10;99.90;;;;;;7381244;19;20025;-59
2023/10/03 01:47:50;;;;;;;37.83;22.58;;;17.10;99.90;;;;;;7380410;19;20336;-59
2023/10/03 01:50:18;;;;;;;35.70;21.70;;;17.10;99.90;;;;;;7379596;19;20025;-59
2023/10/03 01:52:46;;;;;;;36.05;22.27;;;17.10;99.90;;;;;;7377929;19;20566;-59
2023/10/03 01:55:14;;;;;;;41.42;22.13;;;17.10;99.90;;;;;;7379160;19;20046;-59
2023/10/03 01:57:42;;;;;;;35.17;20.52;;;17.10;99.90;;;;;;7378595;19;20050;-60
2023/10/03 02:00:26;;;;;;;36.95;21.67;;;17.10;99.90;;;;;;7378164;19;20601;-59
2023/10/03 02:02:53;;;;;;;36.05;21.33;;;17.20;99.90;;;;;;7376921;19;20026;-62
2023/10/03 02:05:24;;;;;;;41.65;21.88;;;17.20;99.90;;;;;;7378710;19;20022;-60
2023/10/03 02:07:52;;;;;;;38.47;22.23;;;17.20;99.90;;;;;;7380459;19;20030;-60
2023/10/03 02:10:19;;;;;;;38.67;23.08;;;17.20;99.90;;;;;;7379139;19;20018;-59
2023/10/03 02:12:49;;;;;;;34.63;21.52;;;17.30;99.90;;;;;;7377260;19;20022;-60
2023/10/03 02:15:23;;;;;;;36.00;22.23;;;17.30;99.90;;;;;;7382738;19;20025;-62
2023/10/03 02:17:52;;;;;;;41.10;22.35;;;17.30;99.90;;;;;;7380744;19;20723;-60
2023/10/03 02:20:20;;;;;;;38.47;21.52;;;17.30;99.90;;;;;;7383467;19;20363;-62
2023/10/03 02:22:54;;;;;;;33.90;20.42;;;17.30;99.90;;;;;;7382465;19;20027;-62
2023/10/03 02:25:30;;;;;;;36.45;23.13;;;17.30;99.90;;;;;;7380646;19;20091;-62
2023/10/03 02:27:59;;;;;;;36.97;22.00;;;17.30;99.90;;;;;;7374896;19;20418;-63
2023/10/03 02:30:26;;;;;;;34.83;20.95;;;17.30;99.90;;;;;;7377735;19;20325;-61
2023/10/03 02:32:58;;;;;;;33.38;20.92;;;17.40;99.90;;;;;;7373476;19;20022;-61
2023/10/03 02:35:28;;;;;;;39.33;22.55;;;17.40;99.90;;;;;;7375467;19;20041;-61
2023/10/03 02:37:56;;;;;;;38.22;21.27;;;17.40;99.90;;;;;;7375019;19;20026;-59
2023/10/03 02:40:28;;;;;;;42.10;23.73;;;17.40;99.90;;;;;;7371415;19;20046;-60
2023/10/03 02:42:55;;;;;;;33.33;21.63;;;17.40;99.90;;;;;;7367311;19;20645;-59
2023/10/03 02:45:25;;;;;;;39.97;22.63;;;17.40;99.90;;;;;;7367615;19;20019;-59
2023/10/03 02:48:13;;;;;;;36.10;21.17;;;17.30;99.90;;;;;;7369049;19;20031;-58
2023/10/03 02:50:45;;;;;;;40.85;22.65;;;17.30;99.90;;;;;;7373755;19;20021;-60
2023/10/03 02:53:19;;;;;;;36.95;22.25;;;17.30;99.90;;;;;;7364581;19;20015;-60
2023/10/03 02:55:47;;;;;;;36.10;20.50;;;17.30;99.90;;;;;;7365892;19;20103;-59
2023/10/03 02:58:14;;;;;;;39.60;22.48;;;17.40;99.90;;;;;;7366750;19;20129;-60
2023/10/03 03:00:46;;;;;;;37.63;22.50;;;17.40;99.90;;;;;;7365166;19;20019;-60
2023/10/03 03:03:14;;;;;;;36.40;21.00;;;17.40;99.90;;;;;;7364832;19;20379;-62
2023/10/03 03:05:46;;;;;;;36.25;21.10;;;17.40;99.90;;;;;;7375725;19;20018;-61
2023/10/03 03:11:11;;;;;;;37.38;20.73;;;17.40;99.90;;;;;;7374480;19;20042;-62
2023/10/03 03:13:38;;;;;;;35.88;22.42;;;17.50;99.90;;;;;;7371449;19;20019;-60
2023/10/03 03:16:05;;;;;;;35.00;22.60;;;17.40;99.90;;;;;;7371189;19;20435;-60
2023/10/03 03:18:40;;;;;;;39.35;22.13;;;17.40;99.90;;;;;;7374021;19;20088;-61
2023/10/03 03:21:13;;;;;;;37.97;22.45;;;17.40;99.90;;;;;;7370382;19;20391;-61
2023/10/03 03:23:49;;;;;;;34.58;21.65;;;17.40;99.90;;;;;;7369691;19;20014;-61
2023/10/03 03:26:20;;;;;;;33.45;20.10;;;17.40;99.90;;;;;;7373835;19;20742;-63
2023/10/03 03:28:49;;;;;;;38.90;20.73;;;17.40;99.90;;;;;;7369542;19;20018;-59
2023/10/03 03:31:25;;;;;;;37.42;21.67;;;17.40;99.90;;;;;;7369001;19;20089;-59
2023/10/03 03:34:00;;;;;;;32.67;20.92;;;17.40;99.90;;;;;;7370290;19;20018;-59
2023/10/03 03:36:34;;;;;;;34.67;19.80;;;17.40;99.90;;;;;;7371962;19;20047;-59
2023/10/03 03:39:14;;;;;;;37.63;20.63;;;17.40;99.90;;;;;;7380192;19;20362;-59
2023/10/03 03:41:41;;;;;;;33.35;19.08;;;17.40;99.90;;;;;;7371931;19;20070;-59
2023/10/03 03:44:13;;;;;;;35.80;20.15;;;17.50;99.90;;;;;;7373176;19;20090;-59
2023/10/03 03:46:43;;;;;;;35.55;20.98;;;17.50;99.90;;;;;;7381337;19;20093;-61
2023/10/03 03:49:10;;;;;;;31.48;20.50;;;17.50;99.90;;;;;;7386694;19;20081;-59
2023/10/03 03:51:36;;;;;;;31.83;19.52;;;17.50;99.90;;;;;;7379994;19;20492;-59
2023/10/03 03:54:11;;;;;;;31.33;19.20;;;17.50;99.90;;;;;;7386873;19;20019;-61
2023/10/03 03:56:39;;;;;;;33.03;19.63;;;17.50;99.90;;;;;;7380315;19;20018;-61
2023/10/03 03:59:06;;;;;;;33.70;19.83;;;17.50;99.90;;;;;;7383974;19;20022;-59
2023/10/03 04:01:33;;;;;;;32.83;19.25;;;17.60;99.90;;;;;;7378800;19;20058;-59
2023/10/03 04:04:00;;;;;;;33.40;18.85;;;17.60;99.90;;;;;;7382000;19;20018;-61
2023/10/03 04:06:26;;;;;;;35.97;19.63;;;17.60;99.90;;;;;;7377886;19;20019;-59
2023/10/03 04:08:53;;;;;;;33.05;19.10;;;17.60;99.90;;;;;;7381743;19;20014;-59
2023/10/03 04:11:19;;;;;;;29.80;18.77;;;17.60;99.90;;;;;;7378144;19;20037;-59
2023/10/03 04:13:55;;;;;;;33.55;18.42;;;17.60;99.90;;;;;;7381143;19;20037;-59
2023/10/03 04:16:22;;;;;;;36.00;19.05;;;17.60;99.90;;;;;;7378715;19;20396;-60
2023/10/03 04:18:50;;;;;;;36.20;19.58;;;17.60;99.90;;;;;;7379729;19;20090;-61
2023/10/03 04:21:19;;;;;;;31.95;19.77;;;17.60;99.90;;;;;;7382899;19;20089;-61
2023/10/03 04:23:45;;;;;;;32.63;19.13;;;17.70;99.90;;;;;;7384362;19;20030;-62
2023/10/03 04:26:12;;;;;;;37.10;19.52;;;17.70;99.90;;;;;;7381962;19;20377;-61
2023/10/03 04:28:38;;;;;;;34.53;20.02;;;17.70;99.90;;;;;;7375329;19;20034;-61
2023/10/03 04:31:06;;;;;;;32.70;19.17;;;17.60;99.90;;;;;;7376156;19;20110;-59
2023/10/03 04:33:32;;;;;;;36.08;21.00;;;17.60;99.90;;;;;;7371872;19;20022;-61
2023/10/03 04:36:04;;;;;;;34.85;19.38;;;17.60;99.90;;;;;;7380837;19;20024;-59
2023/10/03 04:38:31;;;;;;;33.60;18.98;;;17.60;99.90;;;;;;7377558;19;20023;-59
2023/10/03 04:40:59;;;;;;;32.97;18.70;;;17.60;99.90;;;;;;7378424;19;20022;-59
2023/10/03 04:43:29;;;;;;;34.35;19.65;;;17.70;99.90;;;;;;7378514;19;20022;-59
2023/10/03 04:45:56;;;;;;;37.15;19.23;;;17.60;99.90;;;;;;7376131;19;20019;-59
2023/10/03 04:48:24;;;;;;;33.53;19.30;;;17.70;99.90;;;;;;7374319;19;20033;-65
2023/10/03 04:50:50;;;;;;;30.42;17.38;;;17.70;99.90;;;;;;7377969;19;20854;-65
2023/10/03 04:53:18;;;;;;;30.33;17.85;;;17.70;99.90;;;;;;7374552;19;20596;-61
2023/10/03 04:55:45;;;;;;;31.10;18.60;;;17.80;99.90;;;;;;7376960;19;20022;-61
2023/10/03 04:58:12;;;;;;;31.45;17.70;;;17.90;99.90;;;;;;7373987;19;20052;-62
2023/10/03 05:00:39;;;;;;;29.75;17.52;;;18.10;99.90;;;;;;7378527;19;20107;-62
2023/10/03 05:03:09;;;;;;;31.40;16.73;;;18.20;99.90;;;;;;7376141;19;20078;-63
2023/10/03 05:05:36;;;;;;;29.45;17.70;;;18.30;99.90;;;;;;7376071;19;20104;-64
2023/10/03 05:08:02;;;;;;;26.70;16.13;;;18.40;99.90;;;;;;7376155;19;20018;-64
2023/10/03 05:10:33;;;;;;;27.13;16.48;;;18.50;99.90;;;;;;7374762;19;20023;-64
2023/10/03 05:13:00;;;;;;;;;;;18.50;99.90;;;;;;7374831;19;20035;-64
2023/10/03 05:15:27;;;;;;;26.58;14.90;;;18.60;99.90;;;;;;7377331;19;19923;-63
2023/10/03 05:17:54;;;;;;;25.83;14.88;;;18.60;99.90;;;;;;7376021;19;20025;-64
2023/10/03 05:20:21;;;;;;;26.33;15.18;;;18.70;99.90;;;;;;7373811;19;20589;-64
2023/10/03 05:22:47;;;;;;;27.92;15.77;;;18.80;99.90;;;;;;7377151;19;20074;-64
2023/10/03 05:25:17;;;;;;;31.85;15.23;;;18.90;99.90;;;;;;7374751;19;20018;-65
2023/10/03 05:27:49;;;;;;;26.15;14.10;;;18.80;99.90;;;;;;7377234;19;20018;-65
2023/10/03 05:30:15;;;;;;;24.13;14.00;;;18.90;99.90;;;;;;7374183;19;20756;-65
2023/10/03 05:32:43;;;;;;;27.33;13.57;;;18.90;99.90;;;;;;7372511;19;20056;-65
2023/10/03 05:35:11;;;;;;;26.27;14.18;;;19.00;99.90;;;;;;7374509;19;20018;-65
2023/10/03 05:37:37;;;;;;;25.52;14.50;;;19.00;99.90;;;;;;7374780;19;20104;-64
2023/10/03 05:40:11;;;;;;;25.85;15.02;;;19.10;99.90;;;;;;7377564;19;20035;-65
2023/10/03 05:42:45;;;;;;;22.98;12.77;;;19.00;99.90;;;;;;7377658;19;20018;-64
2023/10/03 05:45:15;;;;;;;24.40;13.52;;;19.00;99.90;;;;;;7370757;19;20025;-64
2023/10/03 05:47:45;;;;;;;29.67;13.60;;;19.00;99.90;;;;;;7376593;19;20030;-64
2023/10/03 05:50:15;;;;;;;24.98;13.32;;;19.10;99.90;;;;;;7372847;19;20026;-64
2023/10/03 05:52:45;;;;;;;23.35;13.77;;;19.00;99.90;;;;;;7373651;19;20665;-64
2023/10/03 05:55:12;;;;;;;29.23;15.02;;;19.00;99.90;;;;;;7374570;19;20019;-64
2023/10/03 05:57:41;;;;;;;26.27;12.77;;;19.00;99.90;;;;;;7376995;19;20018;-64
2023/10/03 06:00:09;;;;;;;25.77;12.32;;;19.00;99.90;;;;;;7371016;19;20944;-62
2023/10/03 06:02:41;;;;;;;23.05;12.65;;;19.10;99.90;;;;;;7373228;19;20752;-63
2023/10/03 06:05:08;;;;;;;21.77;13.18;;;19.00;99.90;;;;;;7366837;19;20026;-64
2023/10/03 06:07:38;;;;;;;20.80;11.88;;;19.10;99.90;;;;;;7372979;19;20026;-64
2023/10/03 06:10:05;;;;;;;22.48;11.95;;;19.10;99.90;;;;;;7374299;19;20015;-63
2023/10/03 06:12:31;;;;;;;20.92;9.70;;;19.00;99.90;;;;;;7374762;19;20020;-65
2023/10/03 06:14:58;;;;;;;21.40;9.25;;;19.00;99.90;;;;;;7376002;19;20030;-65
2023/10/03 06:17:24;;;;;;;22.85;9.70;;;19.00;99.90;;;;;;7374310;19;20014;-64
2023/10/03 06:19:51;;;;;;;17.33;9.77;;;19.00;99.90;;;;;;7373692;19;20018;-61
2023/10/03 06:22:18;;;;;;;16.75;8.75;;;19.00;99.90;;;;;;7377253;19;20783;-64
2023/10/03 06:24:45;;;;;;;18.65;9.77;;;19.00;99.90;;;;;;7370370;19;20019;-64
2023/10/03 06:27:11;;;;;;;17.27;8.13;;;19.00;99.90;;;;;;7373412;19;20014;-64
2023/10/03 06:29:41;;;;;;;17.65;8.07;;;19.00;99.90;;;;;;7373751;19;20018;-61
2023/10/03 06:32:08;;;;;;;20.90;7.88;;;18.90;99.90;;;;;;7374699;19;20016;-64
2023/10/03 06:34:34;;;;;;;13.57;7.22;;;18.90;99.90;;;;;;7368279;19;20018;-64
2023/10/03 06:37:04;;;;;;;17.50;6.25;;;18.90;99.90;;;;;;7374295;19;20093;-64
2023/10/03 06:39:30;;;;;;;17.48;6.90;;;18.90;99.90;;;;;;7372962;19;20101;-64
2023/10/03 06:41:58;;;;;;;14.23;5.97;;;18.90;99.90;;;;;;7376625;19;20018;-63
2023/10/03 06:44:25;;;;;;;15.07;6.40;;;19.00;99.90;;;;;;7377044;19;20488;-62
2023/10/03 06:46:52;;;;;;;13.68;4.93;;;19.00;99.90;;;;;;7371498;19;20022;-61
2023/10/03 06:49:22;;;;;;;12.68;5.53;;;19.00;99.90;;;;;;7372620;19;21009;-64
2023/10/03 06:51:50;;;;;;;16.95;5.43;;;18.90;99.90;;;;;;7369034;19;21841;-62
2023/10/03 06:54:16;;;;;;;17.42;5.40;;;18.90;99.90;;;;;;7373479;19;20373;-62
2023/10/03 06:56:43;;;;;;;11.63;5.00;;;18.90;99.90;;;;;;7371618;19;20909;-62
2023/10/03 06:59:11;;;;;;;11.75;5.40;;;18.80;99.90;;;;;;7375813;19;20482;-61
2023/10/03 07:01:40;;;;;;;16.63;6.65;;;18.80;99.90;;;;;;7369903;19;20012;-62
2023/10/03 07:04:10;;;;;;;12.45;5.82;;;18.80;99.90;;;;;;7371194;19;20492;-62
2023/10/03 07:06:36;;;;;;;13.10;5.47;;;18.80;99.90;;;;;;7367780;19;20494;-63
2023/10/03 07:09:06;;;;;;;13.30;5.10;;;18.80;99.90;;;;;;7375210;19;20509;-64
2023/10/03 07:11:34;;;;;;;9.38;4.72;;;18.80;99.90;;;;;;7369584;19;20023;-62
2023/10/03 07:14:00;;;;;;;14.38;5.03;;;18.80;99.90;;;;;;7371503;19;20070;-64
2023/10/03 07:16:30;;;;;;;13.20;4.70;;;18.80;99.90;;;;;;7371471;19;20018;-62
2023/10/03 07:18:56;;;;;;;15.18;5.32;;;18.90;99.90;;;;;;7375733;19;20025;-62
2023/10/03 07:21:22;;;;;;;12.93;4.93;;;19.00;99.90;;;;;;7368218;19;20090;-62
2023/10/03 07:23:51;;;;;;;10.45;4.32;;;19.10;99.90;;;;;;7375367;19;20094;-61
2023/10/03 07:26:18;;;;;;;13.55;4.72;;;19.10;99.90;;;;;;7369383;19;20019;-61
2023/10/03 07:28:44;;;;;;;11.35;5.43;;;19.10;99.90;;;;;;7371573;19;20047;-61
2023/10/03 07:31:13;;;;;;;12.32;5.00;;;19.00;99.90;;;;;;7368618;19;20023;-62
2023/10/03 07:33:44;;;;;;;13.13;5.97;;;18.90;99.90;;;;;;7370187;19;20094;-62
2023/10/03 07:36:10;;;;;;;13.60;6.13;;;18.80;99.90;;;;;;7368897;19;20371;-62
2023/10/03 07:38:36;;;;;;;15.15;5.30;;;18.60;99.90;;;;;;7368549;19;20116;-65
2023/10/03 07:41:10;;;;;;;13.70;5.78;;;18.60;99.90;;;;;;7373376;19;20026;-61
2023/10/03 07:43:37;;;;;;;11.07;5.45;;;18.50;99.90;;;;;;7370187;19;20021;-64
2023/10/03 07:46:03;;;;;;;11.13;4.93;;;18.40;99.90;;;;;;7369881;19;20052;-62
2023/10/03 07:48:29;;;;;;;12.75;5.63;;;18.30;99.90;;;;;;7374429;19;20023;-62
2023/10/03 07:50:56;;;;;;;13.45;5.57;;;18.30;99.90;;;;;;7371658;19;20041;-61
2023/10/03 07:53:22;;;;;;;8.63;4.95;;;18.20;99.90;;;;;;7377939;19;20033;-62
2023/10/03 07:55:49;;;;;;;12.40;5.18;;;18.20;99.90;;;;;;7381451;19;20018;-63
2023/10/03 07:58:17;;;;;;;13.95;5.60;;;18.20;99.90;;;;;;7373909;19;20019;-64
2023/10/03 08:00:46;;;;;;;13.20;5.40;;;18.20;99.90;;;;;;7371632;19;20014;-66
2023/10/03 08:03:13;;;;;;;13.68;5.70;;;18.30;99.90;;;;;;7379277;19;20019;-64
2023/10/03 08:05:39;;;;;;;18.20;6.90;;;18.20;99.90;;;;;;7377236;19;20027;-65
2023/10/03 08:08:06;;;;;;;14.05;6.10;;;17.90;99.90;;;;;;7379834;19;20087;-70
2023/10/03 08:10:32;;;;;;;14.80;6.47;;;17.80;99.90;;;;;;7383982;19;20405;-65
2023/10/03 08:12:59;;;;;;;14.90;6.13;;;17.70;99.90;;;;;;7382863;19;20497;-65
2023/10/03 08:15:31;;;;;;;15.07;6.57;;;17.60;99.90;;;;;;7383808;19;20348;-65
2023/10/03 08:17:58;;;;;;;13.48;6.43;;;17.50;99.90;;;;;;7389477;19;20018;-64
2023/10/03 08:20:28;;;;;;;12.23;6.00;;;17.30;99.90;;;;;;7393383;19;20021;-64
2023/10/03 08:22:54;;;;;;;12.63;5.60;;;17.30;99.90;;;;;;7394978;19;20014;-63
2023/10/03 08:25:25;;;;;;;11.90;5.68;;;17.30;99.90;;;;;;7396574;19;20015;-67
2023/10/03 08:27:55;;;;;;;14.68;5.40;;;17.30;99.90;;;;;;7379572;19;20491;-66
2023/10/03 08:30:28;;;;;;;14.43;4.95;;;17.40;99.90;;;;;;7374029;19;20038;-64
2023/10/03 08:33:05;;;;;;;10.38;4.32;;;17.40;99.90;;;;;;7377698;19;20018;-63
2023/10/03 08:35:35;;;;;;;10.20;3.72;;;17.40;99.90;;;;;;7377124;19;20106;-67
2023/10/03 08:38:06;;;;;;;9.82;3.58;;;17.40;99.90;;;;;;7373620;19;20022;-67
2023/10/03 08:40:38;;;;;;;10.38;3.92;;;17.30;99.90;;;;;;7377282;19;20530;-66
2023/10/03 08:43:09;;;;;;;7.55;3.17;;;17.30;99.90;;;;;;7375450;19;20018;-67
2023/10/03 08:45:52;;;;;;;11.75;2.95;;;17.30;99.90;;;;;;7389253;19;20018;-62
2023/10/03 08:48:26;;;;;;;11.32;3.17;;;17.30;99.90;;;;;;7380126;19;20022;-63
2023/10/03 08:50:58;;;;;;;11.45;3.63;;;17.40;99.90;;;;;;7381152;19;20526;-65
2023/10/03 08:53:28;;;;;;;10.13;2.92;;;17.40;99.90;;;;;;7379416;19;20015;-64
2023/10/03 08:55:59;;;;;;;11.80;3.22;;;17.40;99.90;;;;;;7381192;19;20765;-63
2023/10/03 08:58:26;;;;;;;10.03;3.17;;;17.40;99.90;;;;;;7374630;19;20018;-66
2023/10/03 09:01:01;;;;;;;8.73;2.30;;;17.40;99.90;;;;;;7378269;19;20699;-64
2023/10/03 09:03:29;;;;;;;8.40;1.83;;;17.40;99.90;;;;;;7377987;19;20074;-64
2023/10/03 09:05:59;;;;;;;8.55;2.33;;;17.40;99.90;;;;;;7397485;19;20365;-64
2023/10/03 09:08:26;;;;;;;8.20;2.42;;;17.40;99.90;;;;;;7380218;19;20015;-63
2023/10/03 09:10:52;;;;;;;10.90;2.15;;;17.40;99.90;;;;;;7378921;19;20015;-64
2023/10/03 09:13:24;;;;;;;8.63;2.03;;;17.50;99.90;;;;;;7377913;19;20018;-67
2023/10/03 09:16:02;;;;;;;6.20;1.77;;;17.50;99.90;;;;;;7378810;19;20466;-66
2023/10/03 09:18:40;;;;;;;7.90;2.78;;;17.50;99.90;;;;;;7374808;19;20043;-66
2023/10/03 09:21:15;;;;;;;8.75;1.85;;;17.50;99.90;;;;;;7376493;19;20022;-64
2023/10/03 09:24:01;;;;;;;5.90;1.67;;;17.50;99.90;;;;;;7383585;19;20489;-67
2023/10/03 09:27:30;;;;;;;6.95;1.45;;;17.60;99.90;;;;;;7376405;19;20917;-67
2023/10/03 09:29:30;;;;;;;8.00;1.40;;;17.40;99.90;;;;;;7372843;19;20019;-66
2023/10/03 09:31:58;;;;;;;7.53;1.30;;;17.30;99.90;;;;;;7375957;19;20018;-62
2023/10/03 09:34:34;;;;;;;6.20;1.27;;;17.10;99.90;;;;;;7375028;19;20851;-62
2023/10/03 09:37:04;;;;;;;3.47;0.80;;;16.80;99.90;;;;;;7372995;19;20512;-62
2023/10/03 09:39:31;;;;;;;6.70;1.25;;;16.60;99.90;;;;;;7374026;19;20941;-62
2023/10/03 09:41:59;;;;;;;6.55;0.90;;;16.40;99.90;;;;;;7378583;19;20474;-66
2023/10/03 09:44:31;;;;;;;8.27;1.20;;;16.30;99.90;;;;;;7390397;19;20704;-65
2023/10/03 09:47:06;;;;;;;7.82;1.10;;;16.30;99.90;;;;;;7387648;19;20011;-65
2023/10/03 09:49:39;;;;;;;12.45;1.30;;;16.20;99.90;;;;;;7388283;19;20122;-63
2023/10/03 09:52:17;;;;;;;6.43;1.23;;;16.20;99.90;;;;;;7386748;19;20014;-65
2023/10/03 09:54:44;;;;;;;5.60;1.13;;;16.10;99.90;;;;;;7390726;19;20493;-63
2023/10/03 09:57:16;;;;;;;6.80;1.33;;;16.10;99.90;;;;;;7376387;19;20022;-63
2023/10/03 09:59:46;;;;;;;6.05;1.00;;;16.00;99.90;;;;;;7384712;19;20010;-65
2023/10/03 10:02:30;;;;;;;5.93;1.03;;;16.10;99.90;;;;;;7379180;19;20376;-63
2023/10/03 10:05:07;;;;;;;2.50;0.60;;;16.10;99.90;;;;;;7394622;19;20062;-65
2023/10/03 10:08:08;;;;;;;3.95;0.90;;;16.20;99.90;;;;;;7394480;19;20021;-65
2023/10/03 10:10:35;;;;;;;2.93;1.00;;;16.20;99.90;;;;;;7393735;19;20488;-65
2023/10/03 10:13:20;;;;;;;5.40;0.85;;;16.30;99.90;;;;;;7383930;19;20018;-66
2023/10/03 10:16:07;;;;;;;3.83;0.73;;;16.30;99.90;;;;;;7394288;19;20771;-65
2023/10/03 10:18:45;;;;;;;10.10;1.20;;;16.40;99.90;;;;;;7395074;19;20416;-66
2023/10/03 10:21:25;;;;;;;3.20;0.70;;;16.40;99.90;;;;;;7395384;19;20011;-64
2023/10/03 10:24:16;;;;;;;3.50;0.60;;;16.40;99.90;;;;;;7395050;19;20035;-64
2023/10/03 10:26:54;;;;;;;4.32;0.90;;;16.40;99.90;;;;;;7388837;19;20121;-63
2023/10/03 10:29:24;;;;;;;5.32;1.25;;;16.40;99.90;;;;;;7373135;19;20044;-63
2023/10/03 10:31:58;;;;;;;3.97;0.90;;;16.40;99.90;;;;;;7378474;19;20014;-63
2023/10/03 10:34:27;;;;;;;4.63;1.00;;;16.40;99.90;;;;;;7380539;19;20022;-65
2023/10/03 10:37:02;;;;;;;4.05;0.80;;;16.30;99.90;;;;;;7389778;19;20444;-63
2023/10/03 10:39:56;;;;;;;5.03;0.88;;;16.20;99.90;;;;;;7384818;19;20047;-65
2023/10/03 10:42:26;;;;;;;5.65;0.80;;;16.30;99.90;;;;;;7375803;19;21856;-63
2023/10/03 10:45:03;;;;;;;3.47;0.80;;;16.50;99.90;;;;;;7387646;19;20021;-66
2023/10/03 10:47:42;;;;;;;2.60;0.70;;;16.60;99.90;;;;;;7380843;19;20761;-66
2023/10/03 10:50:08;;;;;;;2.90;0.68;;;16.70;99.90;;;;;;7391416;19;20116;-66
2023/10/03 10:53:02;;;;;;;4.57;0.63;;;16.70;99.90;;;;;;7388925;19;20026;-66
2023/10/03 10:55:29;;;;;;;3.95;0.90;;;16.70;99.90;;;;;;7392086;19;20022;-66
2023/10/03 10:58:12;;;;;;;1.88;0.65;;;16.80;99.90;;;;;;7391155;19;20029;-67
2023/10/03 11:00:40;;;;;;;3.55;1.00;;;16.80;99.90;;;;;;7394429;19;20014;-65
2023/10/03 11:03:07;;;;;;;3.88;1.10;;;16.80;99.90;;;;;;7392292;19;20011;-65
2023/10/03 11:05:45;;;;;;;3.95;1.27;;;16.90;99.90;;;;;;7392886;19;20018;-66
2023/10/03 11:08:12;;;;;;;4.65;1.20;;;17.00;99.90;;;;;;7395171;19;20073;-66
2023/10/03 11:10:54;;;;;;;3.97;0.93;;;17.00;99.90;;;;;;7394758;19;20014;-66
2023/10/03 11:13:24;;;;;;;3.50;0.90;;;17.00;99.90;;;;;;7395364;19;20474;-66
2023/10/03 11:15:54;;;;;;;4.63;1.20;;;17.40;99.90;;;;;;7393636;19;20014;-66
2023/10/03 11:18:32;;;;;;;4.60;1.33;;;17.80;99.90;;;;;;7391597;19;20474;-67
2023/10/03 11:21:00;;;;;;;4.32;1.25;;;18.20;99.90;;;;;;7380113;19;20500;-63
2023/10/03 11:23:26;;;;;;;5.50;1.38;;;18.80;99.90;;;;;;7378300;19;20018;-63
2023/10/03 11:25:57;;;;;;;5.72;1.10;;;19.20;99.90;;;;;;7387082;19;20014;-66
2023/10/03 11:28:28;;;;;;;3.92;1.20;;;19.40;99.90;;;;;;7389453;19;20002;-66
2023/10/03 11:31:07;;;;;;;7.93;1.15;;;19.40;99.90;;;;;;7383245;19;20074;-64
2023/10/03 11:33:46;;;;;;;6.57;1.50;;;19.00;99.90;;;;;;7377870;19;20019;-64
2023/10/03 11:36:15;;;;;;;6.70;1.20;;;18.60;99.90;;;;;;7377067;19;20041;-64
2023/10/03 11:38:51;;;;;;;6.80;1.60;;;18.20;99.90;;;;;;7375391;19;20045;-64
2023/10/03 11:41:30;;;;;;;5.60;1.30;;;17.90;99.90;;;;;;7379184;19;20018;-64
2023/10/03 11:43:56;;;;;;;6.63;1.20;;;17.70;99.90;;;;;;7378415;19;20474;-64
2023/10/03 11:46:23;;;;;;;5.25;1.25;;;17.30;99.90;;;;;;7381292;19;20482;-64
2023/10/03 11:48:59;;;;;;;5.55;1.42;;;17.10;99.90;;;;;;7378763;19;20015;-66
2023/10/03 11:51:26;;;;;;;3.97;0.98;;;16.90;99.90;;;;;;7394631;19;20017;-67
2023/10/03 11:53:53;;;;;;;1.95;0.80;;;16.60;99.90;;;;;;7399381;19;20022;-66
2023/10/03 11:56:19;;;;;;;4.70;1.10;;;16.20;99.90;;;;;;7401389;19;20094;-65
2023/10/03 11:58:45;;;;;;;5.55;1.80;;;15.80;99.90;;;;;;7404408;19;20062;-65
2023/10/03 12:01:12;;;;;;;7.03;1.77;;;15.60;99.90;;;;;;7404016;19;20344;-64
2023/10/03 12:03:38;;;;;;;4.15;1.30;;;15.50;99.90;;;;;;7402283;19;20014;-65
2023/10/03 12:06:10;;;;;;;3.95;1.25;;;15.50;99.90;;;;;;7405480;19;20376;-65
2023/10/03 12:08:40;;;;;;;9.52;2.00;;;15.40;99.90;;;;;;7401634;19;20011;-65
2023/10/03 12:11:10;;;;;;;4.53;1.67;;;15.10;99.90;;;;;;7401336;19;20174;-65
2023/10/03 12:13:44;;;;;;;4.82;1.73;;;15.00;99.90;;;;;;7401122;19;20474;-65
2023/10/03 12:16:10;;;;;;;7.13;1.98;;;14.90;99.90;;;;;;7403055;19;20336;-66
2023/10/03 12:18:39;;;;;;;9.18;2.15;;;14.90;99.90;;;;;;7389894;19;20078;-64
2023/10/03 12:21:06;;;;;;;10.63;1.98;;;14.90;99.90;;;;;;7381057;19;20032;-64
2023/10/03 12:23:33;;;;;;;7.22;1.95;;;14.90;99.90;;;;;;7375586;19;20054;-64
2023/10/03 12:26:00;;;;;;;6.57;2.58;;;14.90;99.90;;;;;;7380315;19;20018;-63
2023/10/03 12:28:27;;;;;;;11.65;2.95;;;14.90;99.90;;;;;;7378769;19;20054;-63
2023/10/03 12:30:53;;;;;;;11.30;2.97;;;14.80;99.90;;;;;;7379479;19;20018;-64
2023/10/03 12:33:19;;;;;;;7.57;2.25;;;14.80;99.90;;;;;;7396843;19;20034;-63
2023/10/03 12:35:46;;;;;;;5.90;2.53;;;14.80;99.90;;;;;;7377080;19;20022;-64
2023/10/03 12:38:15;;;;;;;8.43;2.85;;;14.70;99.90;;;;;;7373128;19;20462;-64
2023/10/03 12:40:49;;;;;;;6.80;2.60;;;14.70;99.90;;;;;;7383929;19;20018;-66
2023/10/03 12:43:16;;;;;;;8.25;3.00;;;14.80;99.90;;;;;;7392484;19;20030;-65
2023/10/03 12:45:49;;;;;;;7.40;2.50;;;14.90;99.90;;;;;;7400938;19;20010;-66
2023/10/03 12:48:15;;;;;;;10.30;2.83;;;15.00;99.90;;;;;;7375832;19;20662;-64
2023/10/03 12:50:42;;;;;;;6.07;2.38;;;15.20;99.90;;;;;;7377768;19;20126;-64
2023/10/03 12:53:10;;;;;;;6.00;3.17;;;15.50;99.90;;;;;;7398866;19;20482;-65
2023/10/03 12:55:38;;;;;;;6.80;2.90;;;15.80;99.90;;;;;;7401239;19;20463;-65